sensor_id;sensor_type;location;lat;lon;timestamp;pressure;altitude;pressure_sealevel;temperature;humidity
55934;BME280;41839;41.386;2.082;2022-07-29T00:01:44;99640.53;;;28.67;67.78
55934;BME280;41839;41.386;2.082;2022-07-29T00:04:10;99641.06;;;28.78;67.47
55934;BME280;41839;41.386;2.082;2022-07-29T00:06:36;99638.59;;;28.72;67.06
55934;BME280;41839;41.386;2.082;2022-07-29T00:09:01;99648.47;;;28.67;67.11
55934;BME280;41839;41.386;2.082;2022-07-29T00:11:48;99633.84;;;28.55;67.47
55934;BME280;41839;41.386;2.082;2022-07-29T00:14:13;99615.56;;;28.47;67.82
55934;BME280;41839;41.386;2.082;2022-07-29T00:16:39;99604.25;;;28.42;67.81
55934;BME280;41839;41.386;2.082;2022-07-29T00:20:56;99584.09;;;28.38;67.91
55934;BME280;41839;41.386;2.082;2022-07-29T00:23:22;99622.50;;;28.52;67.58
55934;BME280;41839;41.386;2.082;2022-07-29T00:25:47;99559.56;;;28.05;68.30
55934;BME280;41839;41.386;2.082;2022-07-29T00:28:13;99622.56;;;28.20;68.84
55934;BME280;41839;41.386;2.082;2022-07-29T00:30:38;99601.25;;;27.97;69.97
55934;BME280;41839;41.386;2.082;2022-07-29T00:34:55;99623.69;;;28.12;69.77
55934;BME280;41839;41.386;2.082;2022-07-29T00:37:39;99618.84;;;27.96;69.99
55934;BME280;41839;41.386;2.082;2022-07-29T00:40:05;99628.47;;;28.00;69.82
55934;BME280;41839;41.386;2.082;2022-07-29T00:43:29;99614.69;;;27.89;69.88
55934;BME280;41839;41.386;2.082;2022-07-29T00:45:55;99617.28;;;27.91;69.18
55934;BME280;41839;41.386;2.082;2022-07-29T00:48:20;99611.09;;;27.92;69.90
55934;BME280;41839;41.386;2.082;2022-07-29T00:50:46;99608.16;;;28.01;69.71
55934;BME280;41839;41.386;2.082;2022-07-29T00:53:31;99618.84;;;27.98;69.07
55934;BME280;41839;41.386;2.082;2022-07-29T00:56:18;99599.81;;;27.85;69.12
55934;BME280;41839;41.386;2.082;2022-07-29T00:58:45;99601.59;;;27.85;69.65
55934;BME280;41839;41.386;2.082;2022-07-29T01:01:12;99611.16;;;27.89;69.77
55934;BME280;41839;41.386;2.082;2022-07-29T01:03:37;99607.97;;;27.77;70.39
55934;BME280;41839;41.386;2.082;2022-07-29T01:06:03;99582.78;;;27.64;70.43
55934;BME280;41839;41.386;2.082;2022-07-29T01:08:30;99592.94;;;27.79;70.46
55934;BME280;41839;41.386;2.082;2022-07-29T01:10:56;99600.63;;;27.87;70.11
55934;BME280;41839;41.386;2.082;2022-07-29T01:13:22;99596.91;;;27.94;69.90
55934;BME280;41839;41.386;2.082;2022-07-29T01:15:51;99594.94;;;28.01;70.34
55934;BME280;41839;41.386;2.082;2022-07-29T01:18:28;99582.81;;;27.94;70.00
55934;BME280;41839;41.386;2.082;2022-07-29T01:30:50;99560.47;;;28.04;69.24
55934;BME280;41839;41.386;2.082;2022-07-29T01:33:17;99572.59;;;28.11;70.02
55934;BME280;41839;41.386;2.082;2022-07-29T01:36:11;99555.22;;;28.02;69.24
55934;BME280;41839;41.386;2.082;2022-07-29T01:38:39;99549.84;;;28.05;69.48
55934;BME280;41839;41.386;2.082;2022-07-29T01:41:09;99557.66;;;28.09;69.67
55934;BME280;41839;41.386;2.082;2022-07-29T01:43:42;99557.63;;;28.10;69.57
55934;BME280;41839;41.386;2.082;2022-07-29T01:46:13;99561.13;;;28.12;69.42
55934;BME280;41839;41.386;2.082;2022-07-29T01:48:47;99550.56;;;28.11;69.32
55934;BME280;41839;41.386;2.082;2022-07-29T01:51:20;99549.03;;;28.03;69.68
55934;BME280;41839;41.386;2.082;2022-07-29T01:53:57;99467.06;;;27.46;69.33
55934;BME280;41839;41.386;2.082;2022-07-29T01:56:26;99522.00;;;27.64;69.50
55934;BME280;41839;41.386;2.082;2022-07-29T02:02:30;99545.69;;;27.67;69.82
55934;BME280;41839;41.386;2.082;2022-07-29T02:04:57;99534.66;;;27.53;70.85
55934;BME280;41839;41.386;2.082;2022-07-29T02:09:17;99542.19;;;27.67;70.49
55934;BME280;41839;41.386;2.082;2022-07-29T02:11:49;99532.91;;;27.53;70.57
55934;BME280;41839;41.386;2.082;2022-07-29T02:14:18;99546.06;;;27.55;70.78
55934;BME280;41839;41.386;2.082;2022-07-29T02:16:45;99547.91;;;27.51;70.91
55934;BME280;41839;41.386;2.082;2022-07-29T02:19:12;99547.19;;;27.46;71.10
55934;BME280;41839;41.386;2.082;2022-07-29T02:21:40;99506.28;;;27.30;70.80
55934;BME280;41839;41.386;2.082;2022-07-29T02:24:06;99548.59;;;27.58;71.17
55934;BME280;41839;41.386;2.082;2022-07-29T02:28:02;99551.56;;;27.77;70.73
55934;BME280;41839;41.386;2.082;2022-07-29T02:30:40;99540.75;;;27.86;68.79
55934;BME280;41839;41.386;2.082;2022-07-29T02:33:08;99539.97;;;27.83;68.48
55934;BME280;41839;41.386;2.082;2022-07-29T02:35:35;99546.00;;;27.88;68.55
55934;BME280;41839;41.386;2.082;2022-07-29T02:38:02;99545.94;;;27.89;68.71
55934;BME280;41839;41.386;2.082;2022-07-29T02:40:46;99525.03;;;27.81;67.80
55934;BME280;41839;41.386;2.082;2022-07-29T02:43:13;99542.19;;;27.96;67.91
55934;BME280;41839;41.386;2.082;2022-07-29T02:45:39;99546.44;;;28.02;67.29
55934;BME280;41839;41.386;2.082;2022-07-29T02:48:09;99540.38;;;27.98;67.26
55934;BME280;41839;41.386;2.082;2022-07-29T02:50:48;99546.50;;;27.99;66.64
55934;BME280;41839;41.386;2.082;2022-07-29T02:53:20;99530.25;;;27.83;66.96
55934;BME280;41839;41.386;2.082;2022-07-29T02:56:59;99555.06;;;27.79;67.46
55934;BME280;41839;41.386;2.082;2022-07-29T03:01:39;99550.88;;;27.70;69.01
55934;BME280;41839;41.386;2.082;2022-07-29T03:04:07;99544.16;;;27.60;68.79
55934;BME280;41839;41.386;2.082;2022-07-29T03:06:35;99544.50;;;27.48;69.04
55934;BME280;41839;41.386;2.082;2022-07-29T03:09:02;99543.59;;;27.49;69.08
55934;BME280;41839;41.386;2.082;2022-07-29T03:11:29;99554.03;;;27.53;68.61
55934;BME280;41839;41.386;2.082;2022-07-29T03:13:55;99560.91;;;27.59;68.60
55934;BME280;41839;41.386;2.082;2022-07-29T03:16:21;99558.50;;;27.51;68.35
55934;BME280;41839;41.386;2.082;2022-07-29T03:18:49;99569.16;;;27.47;68.79
55934;BME280;41839;41.386;2.082;2022-07-29T03:21:15;99569.34;;;27.41;69.13
55934;BME280;41839;41.386;2.082;2022-07-29T03:23:44;99565.84;;;27.40;69.85
55934;BME280;41839;41.386;2.082;2022-07-29T03:26:11;99566.50;;;27.48;69.39
55934;BME280;41839;41.386;2.082;2022-07-29T03:30:50;99544.72;;;27.40;68.94
55934;BME280;41839;41.386;2.082;2022-07-29T03:33:15;99568.09;;;27.54;69.06
55934;BME280;41839;41.386;2.082;2022-07-29T03:35:41;99567.25;;;27.53;68.70
55934;BME280;41839;41.386;2.082;2022-07-29T03:38:07;99545.53;;;27.42;69.07
55934;BME280;41839;41.386;2.082;2022-07-29T03:40:40;99561.13;;;27.51;68.42
55934;BME280;41839;41.386;2.082;2022-07-29T03:43:08;99559.25;;;27.55;68.32
55934;BME280;41839;41.386;2.082;2022-07-29T03:47:35;99540.81;;;27.53;67.94
55934;BME280;41839;41.386;2.082;2022-07-29T03:50:06;99553.84;;;27.59;67.58
55934;BME280;41839;41.386;2.082;2022-07-29T03:52:32;99552.00;;;27.63;68.46
55934;BME280;41839;41.386;2.082;2022-07-29T03:56:59;99550.03;;;27.70;67.74
55934;BME280;41839;41.386;2.082;2022-07-29T03:59:26;99536.94;;;27.65;68.07
55934;BME280;41839;41.386;2.082;2022-07-29T04:01:53;99543.56;;;27.80;67.54
55934;BME280;41839;41.386;2.082;2022-07-29T04:04:21;99522.50;;;27.77;67.58
55934;BME280;41839;41.386;2.082;2022-07-29T04:06:47;99505.88;;;27.73;67.20
55934;BME280;41839;41.386;2.082;2022-07-29T04:09:13;99526.66;;;27.86;66.85
55934;BME280;41839;41.386;2.082;2022-07-29T04:11:39;99513.84;;;27.72;66.19
55934;BME280;41839;41.386;2.082;2022-07-29T04:14:05;99514.94;;;27.65;66.71
55934;BME280;41839;41.386;2.082;2022-07-29T04:17:46;99528.19;;;27.63;66.92
55934;BME280;41839;41.386;2.082;2022-07-29T04:20:11;99539.63;;;27.64;67.59
55934;BME280;41839;41.386;2.082;2022-07-29T04:22:39;99518.94;;;27.48;66.93
55934;BME280;41839;41.386;2.082;2022-07-29T04:25:05;99537.13;;;27.59;66.79
55934;BME280;41839;41.386;2.082;2022-07-29T04:27:31;99541.34;;;27.65;67.25
55934;BME280;41839;41.386;2.082;2022-07-29T04:29:56;99548.44;;;27.64;66.57
55934;BME280;41839;41.386;2.082;2022-07-29T04:32:22;99545.19;;;27.54;66.95
55934;BME280;41839;41.386;2.082;2022-07-29T04:34:47;99560.88;;;27.61;67.27
55934;BME280;41839;41.386;2.082;2022-07-29T04:37:13;99559.84;;;27.65;67.93
55934;BME280;41839;41.386;2.082;2022-07-29T04:41:07;99559.75;;;27.68;67.02
55934;BME280;41839;41.386;2.082;2022-07-29T04:43:34;99564.53;;;27.56;66.80
55934;BME280;41839;41.386;2.082;2022-07-29T04:46:00;99548.94;;;27.47;66.73
55934;BME280;41839;41.386;2.082;2022-07-29T04:48:26;99570.56;;;27.60;69.52
55934;BME280;41839;41.386;2.082;2022-07-29T04:50:51;99567.06;;;27.59;67.36
55934;BME280;41839;41.386;2.082;2022-07-29T04:53:17;99574.69;;;27.39;67.94
55934;BME280;41839;41.386;2.082;2022-07-29T04:55:42;99567.97;;;27.27;68.15
55934;BME280;41839;41.386;2.082;2022-07-29T04:58:08;99568.88;;;27.26;68.37
55934;BME280;41839;41.386;2.082;2022-07-29T05:00:34;99581.22;;;27.26;68.99
55934;BME280;41839;41.386;2.082;2022-07-29T05:04:10;99595.41;;;27.22;69.10
55934;BME280;41839;41.386;2.082;2022-07-29T05:06:35;99590.25;;;27.17;68.17
55934;BME280;41839;41.386;2.082;2022-07-29T05:09:00;99592.84;;;27.19;68.00
55934;BME280;41839;41.386;2.082;2022-07-29T05:11:26;99599.00;;;27.19;67.63
55934;BME280;41839;41.386;2.082;2022-07-29T05:13:51;99605.25;;;27.17;68.07
55934;BME280;41839;41.386;2.082;2022-07-29T05:16:17;99612.34;;;27.13;67.79
55934;BME280;41839;41.386;2.082;2022-07-29T05:18:42;99605.44;;;27.07;68.23
55934;BME280;41839;41.386;2.082;2022-07-29T05:21:07;99624.66;;;27.14;68.36
55934;BME280;41839;41.386;2.082;2022-07-29T05:23:33;99613.38;;;27.07;68.32
55934;BME280;41839;41.386;2.082;2022-07-29T05:25:58;99622.78;;;27.19;67.98
55934;BME280;41839;41.386;2.082;2022-07-29T05:28:24;99636.06;;;27.16;68.33
55934;BME280;41839;41.386;2.082;2022-07-29T05:30:49;99622.03;;;27.14;68.43
55934;BME280;41839;41.386;2.082;2022-07-29T05:33:15;99627.84;;;27.27;69.79
55934;BME280;41839;41.386;2.082;2022-07-29T05:35:40;99619.13;;;27.23;68.71
55934;BME280;41839;41.386;2.082;2022-07-29T05:38:06;99626.75;;;27.34;69.07
55934;BME280;41839;41.386;2.082;2022-07-29T05:40:31;99607.63;;;27.26;68.63
55934;BME280;41839;41.386;2.082;2022-07-29T05:42:57;99626.44;;;27.46;68.06
55934;BME280;41839;41.386;2.082;2022-07-29T05:45:23;99633.31;;;27.53;68.52
55934;BME280;41839;41.386;2.082;2022-07-29T05:47:49;99618.34;;;27.52;68.16
55934;BME280;41839;41.386;2.082;2022-07-29T05:50:15;99633.91;;;27.63;67.93
55934;BME280;41839;41.386;2.082;2022-07-29T05:52:40;99637.41;;;27.64;67.81
55934;BME280;41839;41.386;2.082;2022-07-29T05:56:47;99642.31;;;27.77;68.45
55934;BME280;41839;41.386;2.082;2022-07-29T05:59:12;99643.66;;;27.92;68.65
55934;BME280;41839;41.386;2.082;2022-07-29T06:01:38;99638.28;;;27.95;67.72
55934;BME280;41839;41.386;2.082;2022-07-29T06:04:05;99652.09;;;28.05;67.25
55934;BME280;41839;41.386;2.082;2022-07-29T06:06:32;99657.19;;;28.13;66.42
55934;BME280;41839;41.386;2.082;2022-07-29T06:10:44;99609.09;;;27.69;67.12
55934;BME280;41839;41.386;2.082;2022-07-29T06:13:11;99637.00;;;27.79;67.74
55934;BME280;41839;41.386;2.082;2022-07-29T06:15:37;99646.19;;;27.66;68.37
55934;BME280;41839;41.386;2.082;2022-07-29T06:18:02;99605.38;;;27.43;68.06
55934;BME280;41839;41.386;2.082;2022-07-29T06:20:29;99643.31;;;27.73;69.18
55934;BME280;41839;41.386;2.082;2022-07-29T06:22:55;99648.00;;;27.95;68.25
55934;BME280;41839;41.386;2.082;2022-07-29T06:26:09;99659.91;;;28.10;67.43
55934;BME280;41839;41.386;2.082;2022-07-29T06:28:34;99614.13;;;27.76;67.23
55934;BME280;41839;41.386;2.082;2022-07-29T06:31:00;99657.63;;;27.97;66.81
55934;BME280;41839;41.386;2.082;2022-07-29T06:33:25;99645.31;;;27.96;67.73
55934;BME280;41839;41.386;2.082;2022-07-29T06:35:51;99649.59;;;28.00;67.29
55934;BME280;41839;41.386;2.082;2022-07-29T06:38:18;99657.56;;;27.99;66.61
55934;BME280;41839;41.386;2.082;2022-07-29T06:41:13;99635.66;;;27.95;67.21
55934;BME280;41839;41.386;2.082;2022-07-29T06:43:42;99662.00;;;27.98;66.79
55934;BME280;41839;41.386;2.082;2022-07-29T06:48:30;99665.63;;;28.25;67.78
55934;BME280;41839;41.386;2.082;2022-07-29T06:50:56;99630.91;;;28.07;65.71
55934;BME280;41839;41.386;2.082;2022-07-29T06:53:21;99653.88;;;28.04;66.14
55934;BME280;41839;41.386;2.082;2022-07-29T06:57:35;99663.66;;;28.31;66.53
55934;BME280;41839;41.386;2.082;2022-07-29T07:00:00;99670.47;;;28.39;65.56
55934;BME280;41839;41.386;2.082;2022-07-29T07:02:26;99676.38;;;28.49;64.73
55934;BME280;41839;41.386;2.082;2022-07-29T07:05:44;99677.16;;;28.81;65.10
55934;BME280;41839;41.386;2.082;2022-07-29T07:08:10;99668.63;;;28.99;63.87
55934;BME280;41839;41.386;2.082;2022-07-29T07:10:35;99663.19;;;29.04;64.65
55934;BME280;41839;41.386;2.082;2022-07-29T07:13:03;99672.75;;;29.08;65.72
55934;BME280;41839;41.386;2.082;2022-07-29T07:15:29;99673.66;;;29.07;62.39
55934;BME280;41839;41.386;2.082;2022-07-29T07:17:55;99664.97;;;29.03;64.80
55934;BME280;41839;41.386;2.082;2022-07-29T07:20:21;99674.41;;;29.12;65.75
55934;BME280;41839;41.386;2.082;2022-07-29T07:22:46;99665.63;;;29.10;62.45
55934;BME280;41839;41.386;2.082;2022-07-29T07:25:12;99641.41;;;28.94;63.44
55934;BME280;41839;41.386;2.082;2022-07-29T07:27:38;99659.50;;;29.08;65.54
55934;BME280;41839;41.386;2.082;2022-07-29T07:30:05;99669.47;;;29.26;65.01
55934;BME280;41839;41.386;2.082;2022-07-29T07:32:32;99674.47;;;29.35;64.96
55934;BME280;41839;41.386;2.082;2022-07-29T07:34:57;99683.34;;;29.34;64.80
55934;BME280;41839;41.386;2.082;2022-07-29T07:37:24;99659.69;;;29.28;64.87
55934;BME280;41839;41.386;2.082;2022-07-29T07:39:51;99680.47;;;29.40;63.91
55934;BME280;41839;41.386;2.082;2022-07-29T07:42:17;99679.50;;;29.43;63.95
55934;BME280;41839;41.386;2.082;2022-07-29T07:44:42;99694.59;;;29.68;62.68
55934;BME280;41839;41.386;2.082;2022-07-29T07:47:08;99689.94;;;29.98;62.40
55934;BME280;41839;41.386;2.082;2022-07-29T07:49:34;99690.25;;;29.88;60.23
55934;BME280;41839;41.386;2.082;2022-07-29T07:51:59;99687.75;;;30.09;61.12
55934;BME280;41839;41.386;2.082;2022-07-29T07:54:25;99690.72;;;30.25;59.38
55934;BME280;41839;41.386;2.082;2022-07-29T07:56:50;99687.03;;;30.29;61.29
55934;BME280;41839;41.386;2.082;2022-07-29T07:59:16;99690.47;;;30.07;61.61
55934;BME280;41839;41.386;2.082;2022-07-29T08:01:42;99691.03;;;29.92;63.53
55934;BME280;41839;41.386;2.082;2022-07-29T08:04:08;99687.78;;;29.84;63.70
55934;BME280;41839;41.386;2.082;2022-07-29T08:06:34;99687.19;;;29.76;59.34
55934;BME280;41839;41.386;2.082;2022-07-29T08:09:02;99650.59;;;29.35;59.68
55934;BME280;41839;41.386;2.082;2022-07-29T08:11:28;99691.06;;;29.67;58.47
55934;BME280;41839;41.386;2.082;2022-07-29T08:14:23;99626.53;;;29.41;60.79
55934;BME280;41839;41.386;2.082;2022-07-29T08:16:49;99681.00;;;29.77;60.68
55934;BME280;41839;41.386;2.082;2022-07-29T08:19:14;99643.69;;;29.56;62.36
55934;BME280;41839;41.386;2.082;2022-07-29T08:21:40;99669.97;;;29.87;59.07
55934;BME280;41839;41.386;2.082;2022-07-29T08:24:06;99692.47;;;30.01;60.98
55934;BME280;41839;41.386;2.082;2022-07-29T08:26:50;99701.34;;;30.00;62.34
55934;BME280;41839;41.386;2.082;2022-07-29T08:29:16;99705.56;;;30.05;62.39
55934;BME280;41839;41.386;2.082;2022-07-29T08:31:42;99684.63;;;29.98;62.12
55934;BME280;41839;41.386;2.082;2022-07-29T08:34:08;99709.59;;;30.16;61.68
55934;BME280;41839;41.386;2.082;2022-07-29T08:36:33;99705.97;;;30.20;61.88
55934;BME280;41839;41.386;2.082;2022-07-29T08:39:00;99715.53;;;30.24;60.70
55934;BME280;41839;41.386;2.082;2022-07-29T08:41:26;99714.16;;;30.12;62.91
55934;BME280;41839;41.386;2.082;2022-07-29T08:43:52;99712.59;;;30.06;62.39
55934;BME280;41839;41.386;2.082;2022-07-29T08:46:45;99703.78;;;30.06;63.32
55934;BME280;41839;41.386;2.082;2022-07-29T08:49:11;99705.88;;;30.21;61.05
55934;BME280;41839;41.386;2.082;2022-07-29T08:51:39;99711.56;;;30.36;61.98
55934;BME280;41839;41.386;2.082;2022-07-29T08:54:05;99715.22;;;30.78;60.64
55934;BME280;41839;41.386;2.082;2022-07-29T08:56:31;99713.22;;;31.06;59.14
55934;BME280;41839;41.386;2.082;2022-07-29T09:00:55;99721.34;;;31.23;55.72
55934;BME280;41839;41.386;2.082;2022-07-29T09:03:24;99720.06;;;31.11;59.01
55934;BME280;41839;41.386;2.082;2022-07-29T09:05:50;99719.38;;;31.28;57.24
55934;BME280;41839;41.386;2.082;2022-07-29T09:08:17;99722.59;;;31.36;57.88
55934;BME280;41839;41.386;2.082;2022-07-29T09:10:43;99717.03;;;31.20;55.07
55934;BME280;41839;41.386;2.082;2022-07-29T09:13:09;99720.53;;;31.00;54.60
55934;BME280;41839;41.386;2.082;2022-07-29T09:15:35;99715.31;;;30.75;57.86
55934;BME280;41839;41.386;2.082;2022-07-29T09:18:34;99724.41;;;30.68;57.22
55934;BME280;41839;41.386;2.082;2022-07-29T09:23:07;99732.88;;;30.56;59.56
55934;BME280;41839;41.386;2.082;2022-07-29T09:25:37;99729.94;;;30.40;56.83
55934;BME280;41839;41.386;2.082;2022-07-29T09:28:12;99729.94;;;30.40;56.74
55934;BME280;41839;41.386;2.082;2022-07-29T09:31:04;99743.50;;;30.32;57.36
55934;BME280;41839;41.386;2.082;2022-07-29T09:34:44;99737.09;;;30.38;56.78
55934;BME280;41839;41.386;2.082;2022-07-29T09:37:10;99697.88;;;30.23;57.95
55934;BME280;41839;41.386;2.082;2022-07-29T09:39:40;99746.72;;;30.64;55.87
55934;BME280;41839;41.386;2.082;2022-07-29T09:42:12;99735.00;;;30.46;55.80
55934;BME280;41839;41.386;2.082;2022-07-29T09:46:13;99735.31;;;30.39;55.49
55934;BME280;41839;41.386;2.082;2022-07-29T09:49:27;99721.91;;;30.18;56.10
55934;BME280;41839;41.386;2.082;2022-07-29T09:52:19;99746.44;;;30.25;59.86
55934;BME280;41839;41.386;2.082;2022-07-29T09:54:45;99744.75;;;30.22;56.82
55934;BME280;41839;41.386;2.082;2022-07-29T09:57:25;99745.44;;;30.29;56.62
55934;BME280;41839;41.386;2.082;2022-07-29T09:59:59;99719.47;;;30.12;56.50
55934;BME280;41839;41.386;2.082;2022-07-29T10:02:30;99735.59;;;30.31;55.31
55934;BME280;41839;41.386;2.082;2022-07-29T10:07:03;99728.72;;;30.49;57.51
55934;BME280;41839;41.386;2.082;2022-07-29T10:09:30;99731.88;;;30.59;54.33
55934;BME280;41839;41.386;2.082;2022-07-29T10:12:07;99729.50;;;30.74;54.17
55934;BME280;41839;41.386;2.082;2022-07-29T10:14:34;99729.41;;;30.77;55.86
55934;BME280;41839;41.386;2.082;2022-07-29T10:17:01;99726.44;;;30.85;56.61
55934;BME280;41839;41.386;2.082;2022-07-29T10:19:29;99726.09;;;30.94;56.78
55934;BME280;41839;41.386;2.082;2022-07-29T10:21:59;99719.97;;;30.92;56.91
55934;BME280;41839;41.386;2.082;2022-07-29T10:24:29;99728.28;;;31.05;56.46
55934;BME280;41839;41.386;2.082;2022-07-29T10:26:56;99727.06;;;31.14;56.43
55934;BME280;41839;41.386;2.082;2022-07-29T10:29:22;99709.13;;;31.19;54.42
55934;BME280;41839;41.386;2.082;2022-07-29T10:35:01;99727.78;;;31.39;55.53
55934;BME280;41839;41.386;2.082;2022-07-29T10:43:22;99718.72;;;31.43;55.46
55934;BME280;41839;41.386;2.082;2022-07-29T10:45:55;99723.78;;;31.70;53.61
55934;BME280;41839;41.386;2.082;2022-07-29T10:48:22;99707.44;;;31.59;54.70
55934;BME280;41839;41.386;2.082;2022-07-29T10:55:33;99733.53;;;31.91;52.51
55934;BME280;41839;41.386;2.082;2022-07-29T11:01:45;99733.25;;;32.37;52.32
55934;BME280;41839;41.386;2.082;2022-07-29T11:04:11;99731.56;;;32.34;52.17
55934;BME280;41839;41.386;2.082;2022-07-29T11:09:30;99750.00;;;31.79;53.19
55934;BME280;41839;41.386;2.082;2022-07-29T11:11:57;99742.22;;;32.15;53.02
55934;BME280;41839;41.386;2.082;2022-07-29T11:20:50;99756.25;;;32.38;52.49
55934;BME280;41839;41.386;2.082;2022-07-29T11:29:03;99756.19;;;32.00;54.30
55934;BME280;41839;41.386;2.082;2022-07-29T11:31:32;99757.47;;;31.91;53.85
55934;BME280;41839;41.386;2.082;2022-07-29T11:34:19;99760.91;;;31.73;55.46
55934;BME280;41839;41.386;2.082;2022-07-29T11:44:58;99768.03;;;31.73;56.41
55934;BME280;41839;41.386;2.082;2022-07-29T11:47:25;99773.81;;;31.40;56.94
55934;BME280;41839;41.386;2.082;2022-07-29T11:49:52;99771.53;;;31.31;58.17
55934;BME280;41839;41.386;2.082;2022-07-29T11:52:18;99723.09;;;31.02;58.83
55934;BME280;41839;41.386;2.082;2022-07-29T11:54:44;99763.03;;;31.22;58.48
55934;BME280;41839;41.386;2.082;2022-07-29T11:57:12;99776.31;;;31.22;58.36
55934;BME280;41839;41.386;2.082;2022-07-29T11:59:42;99764.91;;;31.63;56.92
55934;BME280;41839;41.386;2.082;2022-07-29T12:02:08;99750.06;;;31.78;56.08
55934;BME280;41839;41.386;2.082;2022-07-29T12:04:55;99762.56;;;31.55;57.03
55934;BME280;41839;41.386;2.082;2022-07-29T12:07:29;99756.06;;;31.62;57.20
55934;BME280;41839;41.386;2.082;2022-07-29T12:09:56;99758.34;;;31.50;57.52
55934;BME280;41839;41.386;2.082;2022-07-29T12:14:33;99750.72;;;31.20;59.25
55934;BME280;41839;41.386;2.082;2022-07-29T12:17:00;99771.84;;;31.23;59.65
55934;BME280;41839;41.386;2.082;2022-07-29T12:19:28;99758.31;;;30.85;61.17
55934;BME280;41839;41.386;2.082;2022-07-29T12:21:55;99739.59;;;30.43;61.49
55934;BME280;41839;41.386;2.082;2022-07-29T12:24:23;99775.47;;;30.29;62.80
55934;BME280;41839;41.386;2.082;2022-07-29T12:29:03;99757.06;;;29.75;64.36
55934;BME280;41839;41.386;2.082;2022-07-29T12:31:29;99764.63;;;30.36;62.33
55934;BME280;41839;41.386;2.082;2022-07-29T12:33:54;99757.69;;;30.31;62.93
55934;BME280;41839;41.386;2.082;2022-07-29T12:36:20;99771.97;;;30.74;61.75
55934;BME280;41839;41.386;2.082;2022-07-29T12:38:46;99750.34;;;30.15;61.06
55934;BME280;41839;41.386;2.082;2022-07-29T12:41:12;99779.41;;;30.18;61.11
55934;BME280;41839;41.386;2.082;2022-07-29T12:43:38;99752.03;;;29.92;61.04
55934;BME280;41839;41.386;2.082;2022-07-29T12:46:16;99741.81;;;29.81;61.67
55934;BME280;41839;41.386;2.082;2022-07-29T12:48:43;99746.19;;;29.82;61.69
55934;BME280;41839;41.386;2.082;2022-07-29T12:51:09;99787.19;;;30.24;61.10
55934;BME280;41839;41.386;2.082;2022-07-29T12:53:36;99782.06;;;29.93;61.54
55934;BME280;41839;41.386;2.082;2022-07-29T12:56:03;99781.53;;;29.83;62.34
55934;BME280;41839;41.386;2.082;2022-07-29T12:58:38;99785.66;;;30.17;60.46
55934;BME280;41839;41.386;2.082;2022-07-29T13:01:15;99785.69;;;30.40;59.45
55934;BME280;41839;41.386;2.082;2022-07-29T13:03:56;99757.94;;;30.49;58.04
55934;BME280;41839;41.386;2.082;2022-07-29T13:09:19;99778.09;;;30.76;56.66
55934;BME280;41839;41.386;2.082;2022-07-29T13:11:50;99793.38;;;30.48;57.58
55934;BME280;41839;41.386;2.082;2022-07-29T13:14:32;99790.28;;;30.10;58.38
55934;BME280;41839;41.386;2.082;2022-07-29T13:17:12;99802.47;;;29.91;58.70
55934;BME280;41839;41.386;2.082;2022-07-29T13:19:41;99804.91;;;29.72;59.63
55934;BME280;41839;41.386;2.082;2022-07-29T13:22:12;99807.81;;;29.64;60.14
55934;BME280;41839;41.386;2.082;2022-07-29T13:27:29;99799.06;;;29.34;60.10
55934;BME280;41839;41.386;2.082;2022-07-29T13:29:57;99804.56;;;29.28;59.72
55934;BME280;41839;41.386;2.082;2022-07-29T13:32:23;99795.88;;;29.23;59.54
55934;BME280;41839;41.386;2.082;2022-07-29T13:34:49;99779.44;;;29.13;59.37
55934;BME280;41839;41.386;2.082;2022-07-29T13:37:15;99793.91;;;29.29;59.81
55934;BME280;41839;41.386;2.082;2022-07-29T13:39:42;99796.28;;;29.10;59.80
55934;BME280;41839;41.386;2.082;2022-07-29T13:42:08;99794.81;;;29.00;60.14
55934;BME280;41839;41.386;2.082;2022-07-29T13:44:35;99781.28;;;28.81;60.18
55934;BME280;41839;41.386;2.082;2022-07-29T13:47:00;99787.38;;;28.83;60.50
55934;BME280;41839;41.386;2.082;2022-07-29T13:49:26;99805.81;;;28.86;60.39
55934;BME280;41839;41.386;2.082;2022-07-29T13:51:52;99804.91;;;28.87;60.66
55934;BME280;41839;41.386;2.082;2022-07-29T13:56:01;99792.53;;;28.88;61.63
55934;BME280;41839;41.386;2.082;2022-07-29T13:58:26;99802.13;;;28.92;61.36
55934;BME280;41839;41.386;2.082;2022-07-29T14:00:52;99805.81;;;28.86;62.82
55934;BME280;41839;41.386;2.082;2022-07-29T14:03:18;99802.19;;;28.61;63.34
55934;BME280;41839;41.386;2.082;2022-07-29T14:05:43;99812.06;;;28.56;63.33
55934;BME280;41839;41.386;2.082;2022-07-29T14:08:09;99811.59;;;28.71;62.90
55934;BME280;41839;41.386;2.082;2022-07-29T14:10:35;99807.09;;;28.73;61.76
55934;BME280;41839;41.386;2.082;2022-07-29T14:13:00;99790.88;;;28.56;62.46
55934;BME280;41839;41.386;2.082;2022-07-29T14:15:26;99803.41;;;28.49;62.44
55934;BME280;41839;41.386;2.082;2022-07-29T14:17:51;99792.09;;;28.44;62.40
55934;BME280;41839;41.386;2.082;2022-07-29T14:20:18;99789.53;;;28.39;61.46
55934;BME280;41839;41.386;2.082;2022-07-29T14:22:44;99787.66;;;28.44;61.62
55934;BME280;41839;41.386;2.082;2022-07-29T14:25:10;99788.72;;;28.37;60.90
55934;BME280;41839;41.386;2.082;2022-07-29T14:27:35;99754.44;;;28.33;59.78
55934;BME280;41839;41.386;2.082;2022-07-29T14:30:01;99787.41;;;28.54;59.01
55934;BME280;41839;41.386;2.082;2022-07-29T14:32:26;99783.47;;;28.67;60.08
55934;BME280;41839;41.386;2.082;2022-07-29T14:34:51;99783.16;;;28.78;58.47
55934;BME280;41839;41.386;2.082;2022-07-29T14:37:17;99791.97;;;28.78;58.21
55934;BME280;41839;41.386;2.082;2022-07-29T14:39:42;99785.22;;;28.68;58.48
55934;BME280;41839;41.386;2.082;2022-07-29T14:42:08;99786.13;;;28.95;58.28
55934;BME280;41839;41.386;2.082;2022-07-29T14:44:34;99777.06;;;29.04;56.80
55934;BME280;41839;41.386;2.082;2022-07-29T14:46:59;99757.09;;;28.92;56.52
55934;BME280;41839;41.386;2.082;2022-07-29T14:49:26;99737.34;;;29.04;57.09
55934;BME280;41839;41.386;2.082;2022-07-29T14:51:52;99745.16;;;29.08;55.66